Time;durP1;ratioP1;P1;durP2;ratioP2;P2;SDS_P1;SDS_P2;PMS_P1;PMS_P2;Temp;Humidity;BMP_temperature;BMP_pressure;BME280_temperature;BME280_humidity;BME280_pressure;Samples;Min_cycle;Max_cycle;Signal;HPM_P1;HPM_P2
2021/12/30 00:01:16;;;;;;;0.20;0.20;;;11.80;1.00;;;;;;5080300;28;20542;-65
2021/12/30 00:03:44;;;;;;;0.30;0.30;;;11.80;3.10;;;;;;5059994;28;20225;-64
2021/12/30 00:06:11;;;;;;;0.20;0.20;;;11.80;1.00;;;;;;5080451;28;20218;-65
2021/12/30 00:08:39;;;;;;;0.30;0.30;;;11.80;1.00;;;;;;5077508;28;20218;-63
2021/12/30 00:11:07;;;;;;;0.30;0.30;;;11.80;1.00;;;;;;5063466;28;20243;-65
2021/12/30 00:13:34;;;;;;;0.30;0.30;;;11.80;1.00;;;;;;5061497;28;20199;-64
2021/12/30 00:16:02;;;;;;;0.30;0.30;;;11.80;1.00;;;;;;5059666;28;20233;-65
2021/12/30 00:18:29;;;;;;;0.20;0.20;;;11.80;1.00;;;;;;5062117;28;20896;-64
2021/12/30 00:20:56;;;;;;;0.30;0.30;;;11.70;1.00;;;;;;5058533;28;20772;-65
2021/12/30 00:23:23;;;;;;;0.30;0.30;;;11.70;1.00;;;;;;5078722;28;20194;-65
2021/12/30 00:25:50;;;;;;;0.20;0.20;;;11.70;1.00;;;;;;5078310;28;20190;-65
2021/12/30 00:28:22;;;;;;;0.30;0.30;;;11.80;99.90;;;;;;5077972;28;20218;-65
2021/12/30 00:30:51;;;;;;;0.20;0.20;;;11.80;1.00;;;;;;5078525;28;20209;-65
2021/12/30 00:33:20;;;;;;;0.30;0.30;;;11.80;1.00;;;;;;5079933;28;20196;-65
2021/12/30 00:35:51;;;;;;;0.30;0.30;;;11.70;1.00;;;;;;5076881;28;21563;-65
2021/12/30 00:38:19;;;;;;;0.20;0.20;;;11.70;1.00;;;;;;5061804;28;20192;-65
2021/12/30 00:40:47;;;;;;;0.30;0.30;;;11.80;1.00;;;;;;5075340;28;20190;-65
2021/12/30 00:43:14;;;;;;;0.30;0.30;;;11.80;99.90;;;;;;5080276;28;20715;-65
2021/12/30 00:45:40;;;;;;;0.30;0.30;;;11.80;99.90;;;;;;5078121;28;20195;-65
2021/12/30 00:48:08;;;;;;;0.20;0.20;;;11.70;99.90;;;;;;5081076;28;20210;-65
2021/12/30 00:50:37;;;;;;;0.30;0.30;;;11.70;1.00;;;;;;5079840;28;20269;-64
2021/12/30 00:53:06;;;;;;;0.30;0.30;;;11.70;1.00;;;;;;5080491;28;20182;-64
2021/12/30 00:55:33;;;;;;;0.23;0.23;;;11.70;1.00;;;;;;5078712;28;20224;-64
2021/12/30 00:58:01;;;;;;;0.30;0.30;;;11.60;1.00;;;;;;5078168;28;20281;-64
2021/12/30 01:00:29;;;;;;;0.23;0.23;;;11.70;99.90;;;;;;5077419;28;20233;-63
2021/12/30 01:02:56;;;;;;;0.30;0.30;;;11.70;99.90;;;;;;5062825;28;20207;-64
2021/12/30 01:05:24;;;;;;;0.20;0.20;;;11.70;99.90;;;;;;5078742;28;20194;-64
2021/12/30 01:07:51;;;;;;;0.20;0.20;;;11.70;99.90;;;;;;5079131;28;20317;-64
2021/12/30 01:10:20;;;;;;;0.30;0.30;;;11.70;99.90;;;;;;5077733;28;20207;-64
2021/12/30 01:12:48;;;;;;;0.23;0.23;;;11.60;99.90;;;;;;5077468;28;20202;-64
2021/12/30 01:15:19;;;;;;;0.23;0.23;;;11.60;99.90;;;;;;5078649;28;20217;-66
2021/12/30 01:18:19;;;;;;;0.20;0.20;;;11.60;99.90;;;;;;5075143;28;20208;-65
2021/12/30 01:20:39;;;;;;;0.30;0.30;;;11.70;99.90;;;;;;5078791;28;20267;-64
2021/12/30 01:23:06;;;;;;;1.07;1.07;;;11.60;1.00;;;;;;5049434;28;20194;-65
2021/12/30 01:25:33;;;;;;;0.20;0.20;;;11.60;1.00;;;;;;5080847;28;20252;-64
2021/12/30 01:28:03;;;;;;;0.30;0.30;;;11.60;1.00;;;;;;5078451;28;20206;-65
2021/12/30 01:30:30;;;;;;;0.30;0.30;;;11.50;1.00;;;;;;5078728;28;20534;-65
2021/12/30 01:32:57;;;;;;;0.30;0.30;;;11.40;1.00;;;;;;5080449;28;20570;-65
2021/12/30 01:35:26;;;;;;;0.30;0.30;;;11.30;1.00;;;;;;5061823;28;20199;-66
2021/12/30 01:37:57;;;;;;;0.30;0.30;;;11.40;1.00;;;;;;5062788;28;20202;-65
2021/12/30 01:40:29;;;;;;;0.30;0.30;;;11.40;1.00;;;;;;5077622;28;20194;-65
2021/12/30 01:42:56;;;;;;;0.20;0.20;;;11.40;1.00;;;;;;5063158;28;20199;-65
2021/12/30 01:45:23;;;;;;;0.30;0.30;;;11.40;1.00;;;;;;5058641;28;20190;-65
2021/12/30 01:47:53;;;;;;;0.30;0.30;;;11.40;1.00;;;;;;5080961;28;20325;-65
2021/12/30 01:50:23;;;;;;;0.30;0.30;;;11.50;1.00;;;;;;5067461;28;20617;-62
2021/12/30 01:52:51;;;;;;;0.30;0.30;;;11.60;99.90;;;;;;5086930;28;20281;-61
2021/12/30 01:55:20;;;;;;;0.30;0.30;;;11.60;99.90;;;;;;5083788;28;20234;-61
2021/12/30 01:57:48;;;;;;;0.70;0.67;;;11.50;99.90;;;;;;5064902;28;20190;-61
2021/12/30 02:00:22;;;;;;;0.30;0.30;;;11.60;99.90;;;;;;5083745;28;20277;-62
2021/12/30 02:02:50;;;;;;;0.30;0.30;;;11.50;99.90;;;;;;5085571;28;20194;-61
2021/12/30 02:05:18;;;;;;;0.30;0.30;;;11.50;99.90;;;;;;5087175;28;20194;-62
2021/12/30 02:07:45;;;;;;;0.30;0.30;;;11.50;99.90;;;;;;5085518;28;20252;-61
2021/12/30 02:10:14;;;;;;;0.30;0.30;;;11.50;99.90;;;;;;5054425;28;20587;-62
2021/12/30 02:12:42;;;;;;;0.40;0.40;;;11.50;1.00;;;;;;5070639;28;20478;-62
2021/12/30 02:15:14;;;;;;;0.33;0.33;;;11.50;1.00;;;;;;5090160;28;20186;-61
2021/12/30 02:17:42;;;;;;;0.20;0.20;;;11.40;1.00;;;;;;5070799;28;20182;-61
2021/12/30 02:20:34;;;;;;;0.20;0.20;;;11.40;1.00;;;;;;5089902;28;20733;-61
2021/12/30 02:23:01;;;;;;;0.30;0.30;;;11.40;1.00;;;;;;5056640;28;20187;-61
2021/12/30 02:25:28;;;;;;;0.23;0.23;;;11.40;1.00;;;;;;5088078;28;20256;-61
2021/12/30 02:27:55;;;;;;;0.33;0.33;;;11.50;1.00;;;;;;5088976;28;20283;-62
2021/12/30 02:30:22;;;;;;;0.30;0.30;;;11.50;1.00;;;;;;5088158;28;20253;-61
2021/12/30 02:32:52;;;;;;;0.30;0.30;;;11.50;1.00;;;;;;5089455;28;20253;-60
2021/12/30 02:35:19;;;;;;;0.30;0.30;;;11.50;99.90;;;;;;5070533;28;20268;-60
2021/12/30 02:37:49;;;;;;;0.30;0.30;;;11.50;1.00;;;;;;5067973;28;20194;-61
2021/12/30 02:40:24;;;;;;;0.30;0.30;;;11.50;1.00;;;;;;5084118;28;20213;-60
2021/12/30 02:42:51;;;;;;;0.30;0.30;;;11.50;1.00;;;;;;5082274;28;20232;-61
2021/12/30 02:45:18;;;;;;;0.30;0.30;;;11.50;1.00;;;;;;5071031;28;20699;-60
2021/12/30 02:47:46;;;;;;;0.30;0.30;;;11.50;1.00;;;;;;5056158;28;20186;-60
2021/12/30 02:50:13;;;;;;;0.30;0.30;;;11.50;1.00;;;;;;5068679;28;20208;-61
2021/12/30 02:52:42;;;;;;;0.30;0.30;;;11.60;99.90;;;;;;5091604;28;20190;-61
2021/12/30 02:55:10;;;;;;;0.30;0.30;;;11.60;99.90;;;;;;5088727;28;20186;-61
2021/12/30 02:57:39;;;;;;;0.20;0.20;;;11.50;1.00;;;;;;5088973;28;20194;-62
2021/12/30 03:00:15;;;;;;;0.30;0.30;;;11.50;1.00;;;;;;5089666;28;20201;-61
2021/12/30 03:02:42;;;;;;;0.30;0.30;;;11.50;1.00;;;;;;5090922;28;20252;-62
2021/12/30 03:05:15;;;;;;;0.30;0.30;;;11.50;1.00;;;;;;5090160;28;20190;-62
2021/12/30 03:07:42;;;;;;;0.30;0.30;;;11.50;1.00;;;;;;5073273;28;20534;-62
2021/12/30 03:10:17;;;;;;;0.30;0.30;;;11.50;1.00;;;;;;5090147;28;20194;-61
2021/12/30 03:12:45;;;;;;;0.30;0.30;;;11.60;1.00;;;;;;5073159;28;20660;-62
2021/12/30 03:15:13;;;;;;;0.43;0.43;;;11.60;1.00;;;;;;5090922;28;20229;-62
2021/12/30 03:17:41;;;;;;;0.20;0.20;;;11.60;1.00;;;;;;5090768;28;20190;-61
2021/12/30 03:20:09;;;;;;;0.30;0.30;;;11.60;1.00;;;;;;5090038;28;20576;-62
2021/12/30 03:22:37;;;;;;;0.30;0.30;;;11.60;1.00;;;;;;5072880;28;20251;-61
2021/12/30 03:25:06;;;;;;;0.30;0.30;;;11.60;1.00;;;;;;5088915;28;20206;-61
2021/12/30 03:27:34;;;;;;;0.30;0.30;;;11.60;1.00;;;;;;5088585;28;20206;-61
2021/12/30 03:30:06;;;;;;;0.30;0.30;;;11.70;1.00;;;;;;5088080;28;20209;-60
2021/12/30 03:32:33;;;;;;;0.30;0.30;;;11.60;1.00;;;;;;5090637;28;20255;-61
2021/12/30 03:35:00;;;;;;;0.30;0.30;;;11.60;1.00;;;;;;5088908;28;20634;-61
2021/12/30 03:37:27;;;;;;;0.30;0.30;;;11.70;1.00;;;;;;5066975;28;20575;-61
2021/12/30 03:39:54;;;;;;;0.30;0.30;;;11.70;1.00;;;;;;5089369;28;20194;-62
2021/12/30 03:42:21;;;;;;;0.30;0.30;;;11.70;1.00;;;;;;5071643;28;20202;-61
2021/12/30 03:44:48;;;;;;;0.30;0.30;;;11.70;1.00;;;;;;5070758;28;20236;-61
2021/12/30 03:47:18;;;;;;;0.30;0.30;;;11.60;1.00;;;;;;5069434;28;20249;-63
2021/12/30 03:49:46;;;;;;;0.30;0.30;;;11.60;88.00;;;;;;5089395;28;20285;-61
2021/12/30 03:52:20;;;;;;;0.30;0.30;;;11.70;31.80;;;;;;5068353;28;20226;-61
2021/12/30 03:54:47;;;;;;;0.20;0.20;;;11.70;1.00;;;;;;5066085;28;20190;-61
2021/12/30 03:57:14;;;;;;;0.30;0.30;;;11.70;70.30;;;;;;5088012;28;20754;-61
2021/12/30 03:59:41;;;;;;;0.20;0.20;;;11.70;99.90;;;;;;5089494;28;20512;-61
2021/12/30 04:02:08;;;;;;;0.20;0.20;;;11.70;99.90;;;;;;5089165;28;20553;-63
2021/12/30 04:04:36;;;;;;;0.33;0.33;;;11.70;1.00;;;;;;5089595;28;20684;-62
2021/12/30 04:07:03;;;;;;;0.30;0.30;;;11.60;1.00;;;;;;5071110;28;20202;-61
2021/12/30 04:09:30;;;;;;;0.30;0.30;;;11.60;99.90;;;;;;5090790;28;20626;-61
2021/12/30 04:11:57;;;;;;;0.30;0.30;;;11.60;1.00;;;;;;5070757;28;20880;-61
2021/12/30 04:14:26;;;;;;;0.30;0.30;;;11.50;99.90;;;;;;5086642;28;20244;-61
2021/12/30 04:16:54;;;;;;;0.30;0.30;;;11.50;1.00;;;;;;5087488;28;20248;-61
2021/12/30 04:19:21;;;;;;;0.67;0.67;;;11.50;1.00;;;;;;5066231;28;20768;-61
2021/12/30 04:21:54;;;;;;;0.30;0.30;;;11.50;99.90;;;;;;5084639;28;20233;-61
2021/12/30 04:24:21;;;;;;;0.30;0.30;;;11.50;99.90;;;;;;5064847;28;20202;-61
2021/12/30 04:26:50;;;;;;;0.30;0.30;;;11.40;1.00;;;;;;5087874;28;20202;-61
2021/12/30 04:29:19;;;;;;;0.20;0.20;;;11.40;1.00;;;;;;5062830;28;20207;-61
2021/12/30 04:31:47;;;;;;;0.30;0.30;;;11.40;99.90;;;;;;5085839;28;20274;-60
2021/12/30 04:34:14;;;;;;;0.20;0.20;;;11.40;1.00;;;;;;5063427;28;20198;-61
2021/12/30 04:36:42;;;;;;;0.30;0.30;;;11.50;26.20;;;;;;5086761;28;20198;-61
2021/12/30 04:39:10;;;;;;;0.20;0.20;;;11.40;99.90;;;;;;5083591;28;20276;-61
2021/12/30 04:41:37;;;;;;;0.30;0.30;;;11.40;1.00;;;;;;5052547;28;20320;-60
2021/12/30 04:44:07;;;;;;;0.20;0.20;;;11.40;1.00;;;;;;5087093;28;20237;-61
2021/12/30 04:46:36;;;;;;;0.30;0.30;;;11.40;9.20;;;;;;5086147;28;20285;-61
2021/12/30 04:49:03;;;;;;;0.30;0.30;;;11.40;99.90;;;;;;5055712;28;20214;-61
2021/12/30 04:51:30;;;;;;;0.20;0.20;;;11.40;1.00;;;;;;5087423;28;20251;-61
2021/12/30 04:53:57;;;;;;;0.23;0.23;;;11.40;1.00;;;;;;5088217;28;20198;-60
2021/12/30 04:56:24;;;;;;;0.20;0.20;;;11.50;34.90;;;;;;5086568;28;20190;-61
2021/12/30 04:58:51;;;;;;;0.30;0.30;;;11.40;1.00;;;;;;5086793;28;20236;-60
2021/12/30 05:01:21;;;;;;;0.30;0.30;;;11.50;99.90;;;;;;5086407;28;20289;-61
2021/12/30 05:03:51;;;;;;;0.30;0.30;;;11.50;99.90;;;;;;5083142;28;20226;-62
2021/12/30 05:06:18;;;;;;;0.30;0.30;;;11.50;1.00;;;;;;5086804;28;20254;-61
2021/12/30 05:08:48;;;;;;;0.17;0.17;;;11.60;1.00;;;;;;5071898;28;20239;-61
2021/12/30 05:11:17;;;;;;;0.30;0.30;;;11.60;1.00;;;;;;5089464;28;20272;-61
2021/12/30 05:13:49;;;;;;;0.30;0.30;;;11.60;99.90;;;;;;5070648;28;20214;-60
2021/12/30 05:16:18;;;;;;;0.23;0.23;;;11.60;1.00;;;;;;5064497;28;20594;-60
2021/12/30 05:18:48;;;;;;;0.20;0.20;;;11.60;1.00;;;;;;5087202;28;20631;-61
2021/12/30 05:21:15;;;;;;;0.27;0.27;;;11.70;1.00;;;;;;5070876;28;20225;-60
2021/12/30 05:23:45;;;;;;;0.30;0.30;;;11.70;1.00;;;;;;5082260;28;20186;-60
2021/12/30 05:26:12;;;;;;;0.30;0.30;;;11.70;1.00;;;;;;5087622;28;20609;-60
2021/12/30 05:28:38;;;;;;;0.27;0.27;;;11.80;31.30;;;;;;5069694;28;20666;-61
2021/12/30 05:31:08;;;;;;;0.20;0.20;;;11.80;99.90;;;;;;5052900;28;20227;-61
2021/12/30 05:33:35;;;;;;;0.30;0.30;;;11.80;99.90;;;;;;5068632;28;20290;-60
2021/12/30 05:36:03;;;;;;;0.30;0.30;;;11.90;1.00;;;;;;5068163;28;20400;-61
2021/12/30 05:38:30;;;;;;;0.20;0.20;;;12.00;1.00;;;;;;5088648;28;20635;-60
2021/12/30 05:40:57;;;;;;;0.30;0.30;;;11.90;1.00;;;;;;5053093;28;20186;-60
2021/12/30 05:43:23;;;;;;;0.20;0.20;;;12.00;1.00;;;;;;5087827;28;20678;-60
2021/12/30 05:45:50;;;;;;;0.30;0.30;;;12.00;1.00;;;;;;5091351;28;20217;-60
2021/12/30 05:48:18;;;;;;;0.30;0.30;;;12.00;2.00;;;;;;5070911;28;20194;-60
2021/12/30 05:50:45;;;;;;;0.20;0.20;;;12.00;5.00;;;;;;5090554;28;20230;-60
2021/12/30 05:53:12;;;;;;;0.20;0.20;;;12.00;44.10;;;;;;5080113;28;20186;-61
2021/12/30 05:55:39;;;;;;;0.20;0.20;;;12.00;34.90;;;;;;5096154;28;20228;-60
2021/12/30 05:58:06;;;;;;;0.30;0.30;;;12.10;68.90;;;;;;5093151;28;20194;-60
2021/12/30 06:00:33;;;;;;;0.30;0.30;;;12.10;88.20;;;;;;5092356;28;20206;-60
2021/12/30 06:03:01;;;;;;;0.30;0.30;;;12.10;7.20;;;;;;5091504;28;20194;-60
2021/12/30 06:05:28;;;;;;;0.20;0.20;;;12.10;1.00;;;;;;5089929;28;20196;-60
2021/12/30 06:07:56;;;;;;;0.20;0.20;;;12.20;1.00;;;;;;5092037;28;20546;-60
2021/12/30 06:10:22;;;;;;;0.10;0.10;;;12.20;99.90;;;;;;5091864;28;20300;-60
2021/12/30 06:12:49;;;;;;;0.27;0.27;;;12.20;99.90;;;;;;5090474;28;20194;-60
2021/12/30 06:15:16;;;;;;;0.27;0.27;;;12.30;1.00;;;;;;5070533;28;20738;-60
2021/12/30 06:17:44;;;;;;;0.30;0.30;;;12.30;1.00;;;;;;5073643;28;20267;-60
2021/12/30 06:20:13;;;;;;;0.30;0.30;;;12.30;99.90;;;;;;5088130;28;20251;-60
2021/12/30 06:22:44;;;;;;;0.30;0.30;;;12.40;99.90;;;;;;5091632;28;20198;-60
2021/12/30 06:25:12;;;;;;;0.30;0.30;;;12.30;1.00;;;;;;5090310;28;20186;-60
2021/12/30 06:27:39;;;;;;;0.20;0.20;;;12.30;1.00;;;;;;5071565;28;20603;-60
2021/12/30 06:30:07;;;;;;;0.30;0.30;;;12.30;1.00;;;;;;5090891;28;20841;-60
2021/12/30 06:32:34;;;;;;;0.20;0.20;;;12.30;1.00;;;;;;5090984;28;20226;-60
2021/12/30 06:35:01;;;;;;;0.30;0.30;;;12.40;1.00;;;;;;5071659;28;20194;-60
2021/12/30 06:37:30;;;;;;;0.20;0.20;;;12.40;93.20;;;;;;5086719;28;20225;-60
2021/12/30 06:39:57;;;;;;;0.30;0.30;;;12.40;99.90;;;;;;5074468;28;20202;-59
2021/12/30 06:42:25;;;;;;;0.20;0.20;;;12.50;99.90;;;;;;5056106;28;20198;-60
2021/12/30 06:44:52;;;;;;;0.20;0.20;;;12.50;99.90;;;;;;5065282;28;20971;-60
2021/12/30 06:47:24;;;;;;;0.30;0.30;;;12.40;1.00;;;;;;5089547;28;20993;-60
2021/12/30 06:50:01;;;;;;;0.30;0.30;;;12.40;99.90;;;;;;5090082;28;20201;-60
2021/12/30 06:52:30;;;;;;;0.20;0.20;;;12.50;99.90;;;;;;5070803;28;20186;-60
2021/12/30 06:54:57;;;;;;;0.20;0.20;;;12.50;1.00;;;;;;5090745;28;20307;-60
2021/12/30 06:57:25;;;;;;;0.20;0.20;;;12.50;1.00;;;;;;5089433;28;20202;-60
2021/12/30 06:59:52;;;;;;;0.20;0.20;;;12.50;1.00;;;;;;5072400;28;20301;-60
2021/12/30 07:02:19;;;;;;;0.20;0.20;;;12.50;1.00;;;;;;5090385;28;20669;-60
2021/12/30 07:04:46;;;;;;;0.30;0.30;;;12.50;99.90;;;;;;5089704;28;20209;-60
2021/12/30 07:07:13;;;;;;;0.30;0.30;;;12.50;1.00;;;;;;5088945;28;20692;-60
2021/12/30 07:09:43;;;;;;;0.20;0.20;;;12.50;1.00;;;;;;5071461;28;20298;-60
2021/12/30 07:12:10;;;;;;;0.23;0.23;;;12.50;1.00;;;;;;5090447;28;20251;-60
2021/12/30 07:14:37;;;;;;;0.20;0.20;;;12.50;24.60;;;;;;5087672;28;20191;-61
2021/12/30 07:17:04;;;;;;;0.20;0.20;;;12.60;99.90;;;;;;5069960;28;20311;-60
2021/12/30 07:19:34;;;;;;;0.20;0.20;;;12.60;99.90;;;;;;5072561;28;20230;-61
2021/12/30 07:22:04;;;;;;;0.30;0.30;;;12.50;99.90;;;;;;5091290;28;20222;-60
2021/12/30 07:24:51;;;;;;;0.20;0.20;;;12.50;99.90;;;;;;5086603;28;20656;-61
2021/12/30 07:27:17;;;;;;;0.27;0.27;;;12.50;99.90;;;;;;5090379;28;20206;-61
2021/12/30 07:29:44;;;;;;;0.20;0.20;;;12.50;99.90;;;;;;5089600;28;20305;-61
2021/12/30 07:32:11;;;;;;;0.27;0.27;;;12.40;99.90;;;;;;5071933;28;20647;-61
2021/12/30 07:34:38;;;;;;;0.30;0.30;;;12.50;99.90;;;;;;5087349;28;20232;-60
2021/12/30 07:37:05;;;;;;;0.20;0.20;;;12.50;99.90;;;;;;5088342;28;20243;-61
2021/12/30 07:39:32;;;;;;;0.20;0.20;;;12.40;99.90;;;;;;5071965;28;20230;-61
2021/12/30 07:41:59;;;;;;;0.20;0.20;;;12.50;99.90;;;;;;5088999;28;20205;-61
2021/12/30 07:44:26;;;;;;;0.10;0.10;;;12.50;99.90;;;;;;5088646;28;20210;-61
2021/12/30 07:47:13;;;;;;;0.30;0.30;;;12.50;99.90;;;;;;5087416;28;20225;-61
2021/12/30 07:49:40;;;;;;;0.20;0.20;;;12.50;99.90;;;;;;5054191;28;20218;-61
2021/12/30 07:52:07;;;;;;;0.20;0.20;;;12.60;99.90;;;;;;5069616;28;20247;-61
2021/12/30 07:54:34;;;;;;;0.20;0.20;;;12.60;99.90;;;;;;5070816;28;20565;-60
2021/12/30 07:57:01;;;;;;;0.30;0.30;;;12.70;99.90;;;;;;5088986;28;20232;-61
2021/12/30 07:59:28;;;;;;;0.10;0.10;;;12.70;99.90;;;;;;5087694;28;20209;-61
2021/12/30 08:01:56;;;;;;;0.20;0.20;;;12.70;99.90;;;;;;5069814;28;20236;-61
2021/12/30 08:04:23;;;;;;;0.20;0.20;;;12.70;99.90;;;;;;5088517;28;20205;-61
2021/12/30 08:06:52;;;;;;;0.20;0.20;;;12.80;99.90;;;;;;5088349;28;20198;-61
2021/12/30 08:09:20;;;;;;;0.30;0.30;;;12.80;99.90;;;;;;5088001;28;20214;-61
2021/12/30 08:11:47;;;;;;;0.20;0.20;;;12.90;99.90;;;;;;5088111;28;20655;-61
2021/12/30 08:14:14;;;;;;;0.10;0.10;;;12.90;99.90;;;;;;5088378;28;20214;-61
2021/12/30 08:16:41;;;;;;;0.20;0.20;;;13.00;99.90;;;;;;5088241;28;20191;-61
2021/12/30 08:19:08;;;;;;;0.20;0.20;;;13.00;99.90;;;;;;5088470;28;20186;-61
2021/12/30 08:21:35;;;;;;;0.20;0.20;;;13.00;99.90;;;;;;5085947;28;20246;-62
2021/12/30 08:24:02;;;;;;;0.20;0.20;;;13.10;99.90;;;;;;5071801;28;20198;-61
2021/12/30 08:26:29;;;;;;;0.20;0.20;;;13.10;99.90;;;;;;5087185;28;20198;-61
2021/12/30 08:28:56;;;;;;;0.20;0.20;;;13.20;99.70;;;;;;5090279;28;20194;-61
2021/12/30 08:31:23;;;;;;;0.20;0.20;;;13.20;1.00;;;;;;5065611;28;20372;-61
2021/12/30 08:33:55;;;;;;;0.20;0.20;;;13.10;1.00;;;;;;5065393;28;20213;-61
2021/12/30 08:36:24;;;;;;;0.30;0.30;;;13.20;99.90;;;;;;5066908;28;20211;-61
2021/12/30 08:38:50;;;;;;;0.20;0.20;;;13.20;1.00;;;;;;5069339;28;20256;-61
2021/12/30 08:41:18;;;;;;;0.20;0.20;;;13.30;1.00;;;;;;5064575;28;20207;-61
2021/12/30 08:43:45;;;;;;;0.20;0.20;;;13.30;1.00;;;;;;5051132;28;20262;-61
2021/12/30 08:46:11;;;;;;;0.20;0.20;;;13.30;63.10;;;;;;5066687;28;20191;-61
2021/12/30 08:48:39;;;;;;;0.20;0.20;;;13.40;1.00;;;;;;5065809;28;20206;-61
2021/12/30 08:51:08;;;;;;;0.20;0.20;;;13.40;99.90;;;;;;5064178;28;20246;-61
2021/12/30 08:53:40;;;;;;;0.20;0.20;;;13.30;11.40;;;;;;5067862;28;20603;-61
2021/12/30 08:56:12;;;;;;;0.20;0.20;;;13.40;1.00;;;;;;5066319;28;20187;-61
2021/12/30 08:58:39;;;;;;;0.20;0.20;;;13.40;1.00;;;;;;5070437;28;20191;-61
2021/12/30 09:01:07;;;;;;;0.20;0.20;;;13.40;1.00;;;;;;5052629;28;20199;-61
2021/12/30 09:03:35;;;;;;;0.30;0.30;;;13.30;1.00;;;;;;5068326;28;20199;-61
2021/12/30 09:06:02;;;;;;;0.30;0.30;;;13.40;1.00;;;;;;5068902;28;20221;-61
2021/12/30 09:08:30;;;;;;;0.20;0.20;;;13.40;99.90;;;;;;5051256;28;20288;-61
2021/12/30 09:10:58;;;;;;;0.20;0.20;;;13.40;99.90;;;;;;5067533;28;20218;-61
2021/12/30 09:13:25;;;;;;;0.20;0.20;;;13.40;99.90;;;;;;5069277;28;20195;-61
2021/12/30 09:15:52;;;;;;;0.27;0.27;;;13.40;99.90;;;;;;5066605;28;20527;-61
2021/12/30 09:18:19;;;;;;;0.27;0.27;;;13.50;1.00;;;;;;5071511;28;20195;-61
2021/12/30 09:20:46;;;;;;;0.20;0.20;;;13.50;1.00;;;;;;5072628;28;20755;-61
2021/12/30 09:23:16;;;;;;;0.25;0.25;;;13.50;1.00;;;;;;5072760;28;20222;-61
2021/12/30 09:25:43;;;;;;;0.50;0.50;;;13.50;1.00;;;;;;5071817;28;20206;-61
2021/12/30 09:28:12;;;;;;;0.20;0.20;;;13.50;99.90;;;;;;5070478;28;20210;-61
2021/12/30 09:30:45;;;;;;;0.28;0.28;;;13.50;99.90;;;;;;5068752;28;20678;-60
2021/12/30 09:33:15;;;;;;;0.20;0.20;;;13.50;99.90;;;;;;5072037;28;20681;-60
2021/12/30 09:35:47;;;;;;;0.30;0.30;;;13.60;99.90;;;;;;5094093;28;20191;-60
2021/12/30 09:38:19;;;;;;;0.28;0.28;;;13.50;99.90;;;;;;5093648;28;20277;-60
2021/12/30 09:40:46;;;;;;;0.30;0.30;;;13.50;99.90;;;;;;5089597;28;20274;-61
2021/12/30 09:43:14;;;;;;;0.20;0.20;;;13.50;99.90;;;;;;5092463;28;20191;-61
2021/12/30 09:45:41;;;;;;;0.20;0.20;;;13.50;1.00;;;;;;5092484;28;20259;-61
2021/12/30 09:48:11;;;;;;;0.30;0.30;;;13.50;1.00;;;;;;5087796;28;20194;-61
2021/12/30 09:50:48;;;;;;;0.20;0.20;;;13.50;1.00;;;;;;5089866;28;20223;-61
2021/12/30 09:53:19;;;;;;;0.20;0.20;;;13.50;32.70;;;;;;5092827;28;20186;-60
2021/12/30 09:55:46;;;;;;;0.20;0.20;;;13.50;99.90;;;;;;5092191;28;20596;-60
2021/12/30 09:58:14;;;;;;;0.27;0.27;;;13.50;1.00;;;;;;5088639;28;20197;-61
2021/12/30 10:00:41;;;;;;;0.30;0.30;;;13.60;1.00;;;;;;5091654;28;20209;-61
2021/12/30 10:03:08;;;;;;;0.20;0.20;;;13.60;1.00;;;;;;5072327;28;20217;-61
2021/12/30 10:05:38;;;;;;;0.20;0.20;;;13.70;1.00;;;;;;5092871;28;20187;-62
2021/12/30 10:08:20;;;;;;;0.20;0.20;;;13.70;1.00;;;;;;5088454;28;20275;-60
2021/12/30 10:10:56;;;;;;;0.20;0.20;;;13.70;99.90;;;;;;5092826;28;20212;-60
2021/12/30 10:13:29;;;;;;;0.20;0.20;;;13.80;1.00;;;;;;5090189;28;20197;-61
2021/12/30 10:16:02;;;;;;;0.20;0.20;;;13.90;99.90;;;;;;5074772;28;20194;-60
2021/12/30 10:18:47;;;;;;;0.20;0.20;;;13.90;99.90;;;;;;5076221;28;20198;-60
2021/12/30 10:21:18;;;;;;;0.20;0.20;;;13.90;1.00;;;;;;5075275;28;20248;-61
2021/12/30 10:23:47;;;;;;;0.20;0.20;;;13.90;1.00;;;;;;5074526;28;20204;-61
2021/12/30 10:26:15;;;;;;;0.25;0.25;;;13.90;1.00;;;;;;5088253;28;20731;-61
2021/12/30 10:28:44;;;;;;;0.20;0.20;;;13.90;1.00;;;;;;5092477;28;20268;-61
2021/12/30 10:31:10;;;;;;;0.30;0.30;;;14.00;99.90;;;;;;5090675;28;20226;-60
2021/12/30 10:33:46;;;;;;;0.20;0.20;;;14.10;81.10;;;;;;5075271;28;20201;-61
2021/12/30 10:36:23;;;;;;;0.20;0.20;;;14.10;1.00;;;;;;5076155;28;20178;-60
2021/12/30 10:38:51;;;;;;;0.20;0.20;;;14.10;1.00;;;;;;5094217;28;20194;-60
2021/12/30 10:41:23;;;;;;;0.25;0.25;;;14.00;1.00;;;;;;5094091;28;20244;-61
2021/12/30 10:43:55;;;;;;;0.22;0.22;;;13.90;1.00;;;;;;5091987;28;20247;-60
2021/12/30 10:46:25;;;;;;;0.28;0.28;;;13.90;1.00;;;;;;5092508;28;20206;-61
2021/12/30 10:48:54;;;;;;;0.30;0.30;;;13.90;99.90;;;;;;5093403;28;20196;-61
2021/12/30 10:51:28;;;;;;;0.30;0.30;;;13.90;99.90;;;;;;5091630;28;20693;-60
2021/12/30 10:53:57;;;;;;;0.20;0.20;;;13.90;1.00;;;;;;5093471;28;20242;-61
2021/12/30 10:56:33;;;;;;;0.30;0.30;;;13.90;99.90;;;;;;5093552;28;20279;-61
2021/12/30 10:59:12;;;;;;;0.20;0.20;;;13.90;99.90;;;;;;5090740;28;20197;-61
2021/12/30 11:02:04;;;;;;;0.20;0.20;;;14.00;99.90;;;;;;5072364;28;20580;-61
2021/12/30 11:04:46;;;;;;;0.20;0.20;;;13.90;99.90;;;;;;5092488;28;20214;-60
2021/12/30 11:07:26;;;;;;;0.17;0.17;;;13.90;99.90;;;;;;5090409;28;20201;-61
2021/12/30 11:09:58;;;;;;;0.20;0.20;;;14.00;99.90;;;;;;5090535;28;20212;-60
2021/12/30 11:12:26;;;;;;;0.28;0.28;;;13.90;99.90;;;;;;5088928;28;20190;-60
2021/12/30 11:14:54;;;;;;;0.20;0.20;;;13.90;99.90;;;;;;5052849;28;21355;-59
2021/12/30 11:17:29;;;;;;;0.20;0.20;;;13.90;99.90;;;;;;5070033;28;20237;-61
2021/12/30 11:19:59;;;;;;;0.20;0.20;;;13.90;99.90;;;;;;5072789;28;20247;-60
2021/12/30 11:22:28;;;;;;;0.10;0.10;;;13.90;99.90;;;;;;5059045;28;20288;-60
2021/12/30 11:25:02;;;;;;;0.28;0.28;;;14.10;1.00;;;;;;5070858;28;20202;-60
2021/12/30 11:27:30;;;;;;;0.20;0.20;;;14.10;1.00;;;;;;5090908;28;20281;-60
2021/12/30 11:30:01;;;;;;;0.30;0.30;;;14.10;1.00;;;;;;5089072;28;20259;-60
2021/12/30 11:32:31;;;;;;;0.20;0.20;;;14.10;1.00;;;;;;5074351;28;20708;-60
2021/12/30 11:34:59;;;;;;;0.28;0.28;;;14.10;1.00;;;;;;5090303;28;20225;-60
2021/12/30 11:37:26;;;;;;;0.20;0.20;;;14.00;1.00;;;;;;5090913;28;20197;-60
2021/12/30 11:39:55;;;;;;;0.20;0.20;;;14.00;1.00;;;;;;5066646;28;20255;-60
2021/12/30 11:42:36;;;;;;;0.28;0.28;;;14.00;1.00;;;;;;5080924;28;20546;-60
2021/12/30 11:45:21;;;;;;;0.30;0.30;;;14.10;1.00;;;;;;5086569;28;20219;-60
2021/12/30 11:47:48;;;;;;;0.25;0.25;;;14.10;1.00;;;;;;5091345;28;20257;-60
2021/12/30 11:50:29;;;;;;;0.20;0.20;;;14.20;99.90;;;;;;5089597;28;20236;-61
2021/12/30 11:53:11;;;;;;;0.30;0.30;;;14.20;99.90;;;;;;5070339;28;20669;-60
2021/12/30 11:56:02;;;;;;;0.30;0.30;;;14.20;99.90;;;;;;5072436;28;20210;-60
2021/12/30 11:58:29;;;;;;;0.30;0.30;;;14.10;99.90;;;;;;5090404;28;20596;-61
2021/12/30 12:01:27;;;;;;;0.20;0.20;;;14.20;99.90;;;;;;5089316;28;20194;-60
2021/12/30 12:03:57;;;;;;;0.30;0.30;;;14.20;98.00;;;;;;5087987;28;20235;-59
2021/12/30 12:07:06;;;;;;;0.30;0.30;;;14.30;31.50;;;;;;5090116;28;20247;-61
2021/12/30 12:09:36;;;;;;;0.20;0.20;;;14.40;1.00;;;;;;5085610;28;20215;-61
2021/12/30 12:12:10;;;;;;;0.20;0.20;;;14.60;1.00;;;;;;5089587;28;20221;-61
2021/12/30 12:14:45;;;;;;;0.20;0.20;;;14.60;1.00;;;;;;5089040;28;20229;-60
2021/12/30 12:17:31;;;;;;;0.20;0.20;;;14.70;1.00;;;;;;5090170;28;20178;-61
2021/12/30 12:19:58;;;;;;;0.30;0.30;;;14.70;1.00;;;;;;5089254;28;20224;-61
2021/12/30 12:22:29;;;;;;;0.22;0.22;;;14.70;1.00;;;;;;5065744;28;20207;-60
2021/12/30 12:25:09;;;;;;;0.20;0.20;;;14.60;1.00;;;;;;5088722;28;20219;-60
2021/12/30 12:27:45;;;;;;;0.20;0.20;;;14.60;1.00;;;;;;5089301;28;20243;-61
2021/12/30 12:30:30;;;;;;;0.30;0.30;;;14.40;1.00;;;;;;5070916;28;20190;-60
2021/12/30 12:33:00;;;;;;;0.20;0.20;;;14.50;1.00;;;;;;5087444;28;20229;-61
2021/12/30 12:35:32;;;;;;;0.20;0.20;;;14.50;1.00;;;;;;5087172;28;20664;-60
2021/12/30 12:38:02;;;;;;;0.10;0.10;;;14.50;1.00;;;;;;5089436;28;20189;-60
2021/12/30 12:40:33;;;;;;;0.20;0.20;;;14.50;1.00;;;;;;5087714;28;20255;-60
2021/12/30 12:43:12;;;;;;;0.20;0.20;;;14.50;1.00;;;;;;5087450;28;20255;-60
2021/12/30 12:45:59;;;;;;;0.25;0.25;;;14.60;1.00;;;;;;5088240;28;20194;-61
2021/12/30 12:48:31;;;;;;;0.20;0.20;;;14.60;1.00;;;;;;5087141;28;20239;-61
2021/12/30 12:51:08;;;;;;;0.20;0.20;;;14.50;1.00;;;;;;5091692;28;20202;-60
2021/12/30 12:53:38;;;;;;;0.20;0.20;;;14.50;1.00;;;;;;5093418;28;20189;-60
2021/12/30 12:56:12;;;;;;;0.30;0.30;;;14.40;1.00;;;;;;5090954;28;20218;-60
2021/12/30 12:58:50;;;;;;;0.30;0.30;;;14.40;1.00;;;;;;5089421;28;20208;-61
2021/12/30 13:01:21;;;;;;;0.20;0.20;;;14.50;1.00;;;;;;5087674;28;20228;-61
2021/12/30 13:03:50;;;;;;;0.20;0.20;;;14.50;1.00;;;;;;5083764;28;20561;-60
2021/12/30 13:06:26;;;;;;;0.28;0.28;;;14.40;1.00;;;;;;5069442;28;20202;-60